sensor_id;sensor_type;location;lat;lon;timestamp;P1;durP1;ratioP1;P2;durP2;ratioP2
46334;SDS011;32051;48.882;9.210;2023-05-09T00:01:59;20.23;;;15.45;;
46334;SDS011;32051;48.882;9.210;2023-05-09T00:04:26;19.00;;;16.73;;
46334;SDS011;32051;48.882;9.210;2023-05-09T00:06:53;21.33;;;16.80;;
46334;SDS011;32051;48.882;9.210;2023-05-09T00:09:19;25.27;;;17.33;;
46334;SDS011;32051;48.882;9.210;2023-05-09T00:11:45;20.58;;;17.85;;
46334;SDS011;32051;48.882;9.210;2023-05-09T00:14:11;19.27;;;17.00;;
46334;SDS011;32051;48.882;9.210;2023-05-09T00:16:38;19.75;;;17.38;;
46334;SDS011;32051;48.882;9.210;2023-05-09T00:19:04;18.90;;;16.88;;
46334;SDS011;32051;48.882;9.210;2023-05-09T00:21:31;21.00;;;18.25;;
46334;SDS011;32051;48.882;9.210;2023-05-09T00:23:58;25.60;;;16.65;;
46334;SDS011;32051;48.882;9.210;2023-05-09T00:26:25;24.48;;;18.08;;
46334;SDS011;32051;48.882;9.210;2023-05-09T00:28:51;26.42;;;16.33;;
46334;SDS011;32051;48.882;9.210;2023-05-09T00:31:17;18.90;;;16.98;;
46334;SDS011;32051;48.882;9.210;2023-05-09T00:33:43;21.65;;;17.35;;
46334;SDS011;32051;48.882;9.210;2023-05-09T00:36:09;26.52;;;16.92;;
46334;SDS011;32051;48.882;9.210;2023-05-09T00:38:35;23.88;;;16.55;;
46334;SDS011;32051;48.882;9.210;2023-05-09T00:41:01;21.83;;;16.73;;
46334;SDS011;32051;48.882;9.210;2023-05-09T00:43:28;25.52;;;18.95;;
46334;SDS011;32051;48.882;9.210;2023-05-09T00:45:54;21.55;;;17.50;;
46334;SDS011;32051;48.882;9.210;2023-05-09T00:48:20;18.52;;;16.70;;
46334;SDS011;32051;48.882;9.210;2023-05-09T00:50:47;19.00;;;15.43;;
46334;SDS011;32051;48.882;9.210;2023-05-09T00:53:17;20.23;;;17.35;;
46334;SDS011;32051;48.882;9.210;2023-05-09T00:55:43;23.70;;;16.10;;
46334;SDS011;32051;48.882;9.210;2023-05-09T00:58:10;24.27;;;16.40;;
46334;SDS011;32051;48.882;9.210;2023-05-09T01:00:36;33.28;;;16.23;;
46334;SDS011;32051;48.882;9.210;2023-05-09T01:03:02;17.90;;;16.00;;
46334;SDS011;32051;48.882;9.210;2023-05-09T01:05:30;22.90;;;17.17;;
46334;SDS011;32051;48.882;9.210;2023-05-09T01:08:00;18.33;;;15.68;;
46334;SDS011;32051;48.882;9.210;2023-05-09T01:13:14;17.98;;;15.90;;
46334;SDS011;32051;48.882;9.210;2023-05-09T01:15:53;19.13;;;15.75;;
46334;SDS011;32051;48.882;9.210;2023-05-09T01:18:39;16.58;;;14.77;;
46334;SDS011;32051;48.882;9.210;2023-05-09T01:21:09;19.35;;;15.23;;
46334;SDS011;32051;48.882;9.210;2023-05-09T01:31:16;17.63;;;14.75;;
46334;SDS011;32051;48.882;9.210;2023-05-09T01:33:44;20.58;;;15.82;;
46334;SDS011;32051;48.882;9.210;2023-05-09T01:36:11;20.05;;;15.98;;
46334;SDS011;32051;48.882;9.210;2023-05-09T01:38:40;23.85;;;16.17;;
46334;SDS011;32051;48.882;9.210;2023-05-09T01:41:07;32.40;;;17.05;;
46334;SDS011;32051;48.882;9.210;2023-05-09T01:43:34;18.70;;;14.57;;
46334;SDS011;32051;48.882;9.210;2023-05-09T01:46:01;22.73;;;15.07;;
46334;SDS011;32051;48.882;9.210;2023-05-09T01:48:29;17.38;;;14.23;;
46334;SDS011;32051;48.882;9.210;2023-05-09T01:50:56;17.95;;;15.30;;
46334;SDS011;32051;48.882;9.210;2023-05-09T01:53:23;17.33;;;13.85;;
46334;SDS011;32051;48.882;9.210;2023-05-09T01:55:49;18.27;;;15.05;;
46334;SDS011;32051;48.882;9.210;2023-05-09T01:58:16;18.80;;;15.48;;
46334;SDS011;32051;48.882;9.210;2023-05-09T02:00:43;17.45;;;15.35;;
46334;SDS011;32051;48.882;9.210;2023-05-09T02:03:11;17.23;;;15.43;;
46334;SDS011;32051;48.882;9.210;2023-05-09T02:05:37;14.75;;;13.23;;
46334;SDS011;32051;48.882;9.210;2023-05-09T02:08:04;16.85;;;15.18;;
46334;SDS011;32051;48.882;9.210;2023-05-09T02:10:31;18.15;;;14.35;;
46334;SDS011;32051;48.882;9.210;2023-05-09T02:12:57;15.27;;;13.75;;
46334;SDS011;32051;48.882;9.210;2023-05-09T02:15:24;17.52;;;14.88;;
46334;SDS011;32051;48.882;9.210;2023-05-09T02:17:50;17.48;;;13.27;;
46334;SDS011;32051;48.882;9.210;2023-05-09T02:20:16;21.60;;;14.82;;
46334;SDS011;32051;48.882;9.210;2023-05-09T02:22:42;24.20;;;15.38;;
46334;SDS011;32051;48.882;9.210;2023-05-09T02:25:10;16.55;;;14.75;;
46334;SDS011;32051;48.882;9.210;2023-05-09T02:27:39;17.10;;;15.30;;
46334;SDS011;32051;48.882;9.210;2023-05-09T02:30:07;21.90;;;15.48;;
46334;SDS011;32051;48.882;9.210;2023-05-09T02:32:34;26.88;;;17.20;;
46334;SDS011;32051;48.882;9.210;2023-05-09T02:35:01;22.33;;;15.80;;
46334;SDS011;32051;48.882;9.210;2023-05-09T02:37:28;17.10;;;15.27;;
46334;SDS011;32051;48.882;9.210;2023-05-09T02:39:54;16.45;;;14.80;;
46334;SDS011;32051;48.882;9.210;2023-05-09T02:42:21;15.18;;;13.38;;
46334;SDS011;32051;48.882;9.210;2023-05-09T02:44:49;17.52;;;13.75;;
46334;SDS011;32051;48.882;9.210;2023-05-09T02:47:16;17.00;;;15.05;;
46334;SDS011;32051;48.882;9.210;2023-05-09T02:49:42;18.30;;;14.57;;
46334;SDS011;32051;48.882;9.210;2023-05-09T02:52:09;17.13;;;15.30;;
46334;SDS011;32051;48.882;9.210;2023-05-09T02:54:36;20.70;;;16.92;;
46334;SDS011;32051;48.882;9.210;2023-05-09T02:57:02;17.98;;;16.08;;
46334;SDS011;32051;48.882;9.210;2023-05-09T02:59:28;20.17;;;16.88;;
46334;SDS011;32051;48.882;9.210;2023-05-09T03:01:58;22.67;;;16.73;;
46334;SDS011;32051;48.882;9.210;2023-05-09T03:04:24;19.60;;;15.75;;
46334;SDS011;32051;48.882;9.210;2023-05-09T03:06:50;20.92;;;16.45;;
46334;SDS011;32051;48.882;9.210;2023-05-09T03:09:16;20.13;;;18.02;;
46334;SDS011;32051;48.882;9.210;2023-05-09T03:11:43;22.70;;;16.13;;
46334;SDS011;32051;48.882;9.210;2023-05-09T03:14:09;24.67;;;17.63;;
46334;SDS011;32051;48.882;9.210;2023-05-09T03:16:37;24.00;;;18.90;;
46334;SDS011;32051;48.882;9.210;2023-05-09T03:19:08;22.73;;;16.63;;
46334;SDS011;32051;48.882;9.210;2023-05-09T03:21:34;17.48;;;15.52;;
46334;SDS011;32051;48.882;9.210;2023-05-09T03:24:00;22.90;;;17.27;;
46334;SDS011;32051;48.882;9.210;2023-05-09T03:26:28;25.88;;;18.42;;
46334;SDS011;32051;48.882;9.210;2023-05-09T03:28:54;26.15;;;18.20;;
46334;SDS011;32051;48.882;9.210;2023-05-09T03:31:20;23.05;;;17.25;;
46334;SDS011;32051;48.882;9.210;2023-05-09T03:33:47;19.83;;;16.95;;
46334;SDS011;32051;48.882;9.210;2023-05-09T03:36:13;23.80;;;18.50;;
46334;SDS011;32051;48.882;9.210;2023-05-09T03:38:41;26.05;;;17.30;;
46334;SDS011;32051;48.882;9.210;2023-05-09T03:41:08;21.02;;;17.58;;
46334;SDS011;32051;48.882;9.210;2023-05-09T03:43:34;23.42;;;17.48;;
46334;SDS011;32051;48.882;9.210;2023-05-09T03:46:01;33.45;;;17.83;;
46334;SDS011;32051;48.882;9.210;2023-05-09T03:48:28;29.42;;;17.05;;
46334;SDS011;32051;48.882;9.210;2023-05-09T03:50:54;22.45;;;18.00;;
46334;SDS011;32051;48.882;9.210;2023-05-09T03:53:22;21.85;;;17.58;;
46334;SDS011;32051;48.882;9.210;2023-05-09T03:55:50;20.17;;;17.40;;
46334;SDS011;32051;48.882;9.210;2023-05-09T03:58:16;28.15;;;19.05;;
46334;SDS011;32051;48.882;9.210;2023-05-09T04:00:46;28.08;;;19.08;;
46334;SDS011;32051;48.882;9.210;2023-05-09T04:03:18;21.20;;;17.67;;
46334;SDS011;32051;48.882;9.210;2023-05-09T04:05:47;26.95;;;20.10;;
46334;SDS011;32051;48.882;9.210;2023-05-09T04:08:23;24.70;;;20.85;;
46334;SDS011;32051;48.882;9.210;2023-05-09T04:10:49;27.77;;;20.75;;
46334;SDS011;32051;48.882;9.210;2023-05-09T04:13:16;24.90;;;20.60;;
46334;SDS011;32051;48.882;9.210;2023-05-09T04:15:44;28.27;;;20.48;;
46334;SDS011;32051;48.882;9.210;2023-05-09T04:18:10;27.08;;;21.33;;
46334;SDS011;32051;48.882;9.210;2023-05-09T04:20:36;30.17;;;21.55;;
46334;SDS011;32051;48.882;9.210;2023-05-09T04:23:02;28.13;;;20.67;;
46334;SDS011;32051;48.882;9.210;2023-05-09T04:25:28;28.42;;;21.45;;
46334;SDS011;32051;48.882;9.210;2023-05-09T04:27:56;27.23;;;21.25;;
46334;SDS011;32051;48.882;9.210;2023-05-09T04:30:22;32.42;;;21.63;;
46334;SDS011;32051;48.882;9.210;2023-05-09T04:32:52;30.60;;;22.55;;
46334;SDS011;32051;48.882;9.210;2023-05-09T04:35:19;28.40;;;21.92;;
46334;SDS011;32051;48.882;9.210;2023-05-09T04:37:47;31.50;;;21.20;;
46334;SDS011;32051;48.882;9.210;2023-05-09T04:40:14;29.92;;;21.48;;
46334;SDS011;32051;48.882;9.210;2023-05-09T04:42:47;25.58;;;20.42;;
46334;SDS011;32051;48.882;9.210;2023-05-09T04:45:13;24.83;;;19.60;;
46334;SDS011;32051;48.882;9.210;2023-05-09T04:47:39;32.78;;;20.75;;
46334;SDS011;32051;48.882;9.210;2023-05-09T04:50:06;25.52;;;20.92;;
46334;SDS011;32051;48.882;9.210;2023-05-09T04:52:32;30.35;;;19.25;;
46334;SDS011;32051;48.882;9.210;2023-05-09T04:54:58;27.75;;;19.33;;
46334;SDS011;32051;48.882;9.210;2023-05-09T04:57:28;22.65;;;18.35;;
46334;SDS011;32051;48.882;9.210;2023-05-09T04:59:56;28.85;;;18.48;;
46334;SDS011;32051;48.882;9.210;2023-05-09T05:02:22;24.05;;;17.77;;
46334;SDS011;32051;48.882;9.210;2023-05-09T05:04:50;29.45;;;19.33;;
46334;SDS011;32051;48.882;9.210;2023-05-09T05:07:16;24.58;;;17.90;;
46334;SDS011;32051;48.882;9.210;2023-05-09T05:09:43;29.48;;;19.23;;
46334;SDS011;32051;48.882;9.210;2023-05-09T05:12:09;22.38;;;17.58;;
46334;SDS011;32051;48.882;9.210;2023-05-09T05:14:37;21.63;;;16.92;;
46334;SDS011;32051;48.882;9.210;2023-05-09T05:17:07;24.67;;;18.90;;
46334;SDS011;32051;48.882;9.210;2023-05-09T05:19:34;26.10;;;18.10;;
46334;SDS011;32051;48.882;9.210;2023-05-09T05:22:01;23.20;;;18.20;;
46334;SDS011;32051;48.882;9.210;2023-05-09T05:24:30;22.50;;;16.95;;
46334;SDS011;32051;48.882;9.210;2023-05-09T05:26:56;25.40;;;18.75;;
46334;SDS011;32051;48.882;9.210;2023-05-09T05:29:23;19.27;;;17.25;;
46334;SDS011;32051;48.882;9.210;2023-05-09T05:31:49;33.33;;;20.42;;
46334;SDS011;32051;48.882;9.210;2023-05-09T05:34:15;24.83;;;19.13;;
46334;SDS011;32051;48.882;9.210;2023-05-09T05:36:43;23.20;;;18.85;;
46334;SDS011;32051;48.882;9.210;2023-05-09T05:39:10;28.52;;;19.17;;
46334;SDS011;32051;48.882;9.210;2023-05-09T05:41:36;28.55;;;19.13;;
46334;SDS011;32051;48.882;9.210;2023-05-09T05:44:04;28.15;;;18.58;;
46334;SDS011;32051;48.882;9.210;2023-05-09T05:46:31;24.20;;;19.25;;
46334;SDS011;32051;48.882;9.210;2023-05-09T05:48:57;26.08;;;19.00;;
46334;SDS011;32051;48.882;9.210;2023-05-09T05:51:24;26.30;;;19.80;;
46334;SDS011;32051;48.882;9.210;2023-05-09T05:53:50;26.60;;;19.70;;
46334;SDS011;32051;48.882;9.210;2023-05-09T05:56:16;23.73;;;20.17;;
46334;SDS011;32051;48.882;9.210;2023-05-09T05:58:43;30.98;;;19.80;;
46334;SDS011;32051;48.882;9.210;2023-05-09T06:01:09;26.48;;;19.90;;
46334;SDS011;32051;48.882;9.210;2023-05-09T06:03:35;46.17;;;20.50;;
46334;SDS011;32051;48.882;9.210;2023-05-09T06:06:04;27.13;;;20.38;;
46334;SDS011;32051;48.882;9.210;2023-05-09T06:08:30;23.30;;;19.58;;
46334;SDS011;32051;48.882;9.210;2023-05-09T06:10:57;25.45;;;20.63;;
46334;SDS011;32051;48.882;9.210;2023-05-09T06:13:23;24.30;;;18.90;;
46334;SDS011;32051;48.882;9.210;2023-05-09T06:15:55;25.40;;;18.37;;
46334;SDS011;32051;48.882;9.210;2023-05-09T06:18:21;25.50;;;19.05;;
46334;SDS011;32051;48.882;9.210;2023-05-09T06:20:47;22.40;;;19.15;;
46334;SDS011;32051;48.882;9.210;2023-05-09T06:23:14;23.90;;;19.17;;
46334;SDS011;32051;48.882;9.210;2023-05-09T06:25:45;24.00;;;19.27;;
46334;SDS011;32051;48.882;9.210;2023-05-09T06:28:11;23.13;;;18.17;;
46334;SDS011;32051;48.882;9.210;2023-05-09T06:30:37;28.50;;;18.73;;
46334;SDS011;32051;48.882;9.210;2023-05-09T06:33:04;25.55;;;18.35;;
46334;SDS011;32051;48.882;9.210;2023-05-09T06:35:30;20.77;;;18.33;;
46334;SDS011;32051;48.882;9.210;2023-05-09T06:37:56;26.27;;;19.17;;
46334;SDS011;32051;48.882;9.210;2023-05-09T06:40:22;21.50;;;17.88;;
46334;SDS011;32051;48.882;9.210;2023-05-09T06:42:47;21.15;;;17.67;;
46334;SDS011;32051;48.882;9.210;2023-05-09T06:45:14;21.10;;;18.80;;
46334;SDS011;32051;48.882;9.210;2023-05-09T06:47:39;19.98;;;17.90;;
46334;SDS011;32051;48.882;9.210;2023-05-09T06:50:05;28.70;;;19.73;;
46334;SDS011;32051;48.882;9.210;2023-05-09T06:52:31;23.65;;;18.52;;
46334;SDS011;32051;48.882;9.210;2023-05-09T06:54:57;20.77;;;18.55;;
46334;SDS011;32051;48.882;9.210;2023-05-09T06:57:23;24.23;;;18.23;;
46334;SDS011;32051;48.882;9.210;2023-05-09T06:59:48;28.35;;;18.27;;
46334;SDS011;32051;48.882;9.210;2023-05-09T07:02:14;27.38;;;18.63;;
46334;SDS011;32051;48.882;9.210;2023-05-09T07:04:40;24.45;;;19.20;;
46334;SDS011;32051;48.882;9.210;2023-05-09T07:07:06;25.10;;;19.77;;
46334;SDS011;32051;48.882;9.210;2023-05-09T07:09:32;22.50;;;18.20;;
46334;SDS011;32051;48.882;9.210;2023-05-09T07:11:58;22.58;;;19.38;;
46334;SDS011;32051;48.882;9.210;2023-05-09T07:14:25;36.00;;;19.98;;
46334;SDS011;32051;48.882;9.210;2023-05-09T07:16:50;26.35;;;18.55;;
46334;SDS011;32051;48.882;9.210;2023-05-09T07:19:16;21.60;;;18.30;;
46334;SDS011;32051;48.882;9.210;2023-05-09T07:21:42;24.60;;;17.83;;
46334;SDS011;32051;48.882;9.210;2023-05-09T07:24:07;28.23;;;18.98;;
46334;SDS011;32051;48.882;9.210;2023-05-09T07:26:36;22.33;;;17.73;;
46334;SDS011;32051;48.882;9.210;2023-05-09T07:29:02;18.58;;;16.13;;
46334;SDS011;32051;48.882;9.210;2023-05-09T07:31:28;20.15;;;17.48;;
46334;SDS011;32051;48.882;9.210;2023-05-09T07:33:54;17.83;;;16.10;;
46334;SDS011;32051;48.882;9.210;2023-05-09T07:36:20;18.08;;;14.68;;
46334;SDS011;32051;48.882;9.210;2023-05-09T07:38:45;18.73;;;15.40;;
46334;SDS011;32051;48.882;9.210;2023-05-09T07:41:13;24.35;;;15.20;;
46334;SDS011;32051;48.882;9.210;2023-05-09T07:43:38;15.52;;;13.57;;
46334;SDS011;32051;48.882;9.210;2023-05-09T07:46:04;14.93;;;13.35;;
46334;SDS011;32051;48.882;9.210;2023-05-09T07:48:30;21.13;;;15.30;;
46334;SDS011;32051;48.882;9.210;2023-05-09T07:50:55;19.75;;;14.82;;
46334;SDS011;32051;48.882;9.210;2023-05-09T07:53:22;17.30;;;14.30;;
46334;SDS011;32051;48.882;9.210;2023-05-09T07:55:48;19.60;;;15.65;;
46334;SDS011;32051;48.882;9.210;2023-05-09T07:58:14;28.27;;;15.20;;
46334;SDS011;32051;48.882;9.210;2023-05-09T08:00:41;14.35;;;12.95;;
46334;SDS011;32051;48.882;9.210;2023-05-09T08:03:06;14.55;;;11.07;;
46334;SDS011;32051;48.882;9.210;2023-05-09T08:05:32;25.35;;;13.30;;
46334;SDS011;32051;48.882;9.210;2023-05-09T08:07:58;17.15;;;12.75;;
46334;SDS011;32051;48.882;9.210;2023-05-09T08:10:24;20.42;;;13.02;;
46334;SDS011;32051;48.882;9.210;2023-05-09T08:12:50;24.25;;;14.95;;
46334;SDS011;32051;48.882;9.210;2023-05-09T08:15:18;15.63;;;13.68;;
46334;SDS011;32051;48.882;9.210;2023-05-09T08:17:43;14.98;;;12.90;;
46334;SDS011;32051;48.882;9.210;2023-05-09T08:20:09;16.45;;;12.73;;
46334;SDS011;32051;48.882;9.210;2023-05-09T08:22:37;12.95;;;11.63;;
46334;SDS011;32051;48.882;9.210;2023-05-09T08:25:04;12.57;;;11.38;;
46334;SDS011;32051;48.882;9.210;2023-05-09T08:27:31;31.17;;;13.02;;
46334;SDS011;32051;48.882;9.210;2023-05-09T08:29:57;14.13;;;12.60;;
46334;SDS011;32051;48.882;9.210;2023-05-09T08:32:23;18.55;;;14.15;;
46334;SDS011;32051;48.882;9.210;2023-05-09T08:34:49;15.68;;;13.95;;
46334;SDS011;32051;48.882;9.210;2023-05-09T08:37:14;19.33;;;12.90;;
46334;SDS011;32051;48.882;9.210;2023-05-09T08:39:40;16.85;;;13.93;;
46334;SDS011;32051;48.882;9.210;2023-05-09T08:42:06;18.38;;;14.38;;
46334;SDS011;32051;48.882;9.210;2023-05-09T08:44:33;16.77;;;15.10;;
46334;SDS011;32051;48.882;9.210;2023-05-09T08:47:00;21.15;;;13.70;;
46334;SDS011;32051;48.882;9.210;2023-05-09T08:49:26;16.95;;;14.18;;
46334;SDS011;32051;48.882;9.210;2023-05-09T08:51:54;14.45;;;12.18;;
46334;SDS011;32051;48.882;9.210;2023-05-09T08:54:21;21.98;;;12.02;;
46334;SDS011;32051;48.882;9.210;2023-05-09T08:56:47;19.15;;;13.02;;
46334;SDS011;32051;48.882;9.210;2023-05-09T08:59:14;15.55;;;12.38;;
46334;SDS011;32051;48.882;9.210;2023-05-09T09:01:41;13.60;;;10.95;;
46334;SDS011;32051;48.882;9.210;2023-05-09T09:04:07;15.52;;;11.68;;
46334;SDS011;32051;48.882;9.210;2023-05-09T09:06:33;15.68;;;11.18;;
46334;SDS011;32051;48.882;9.210;2023-05-09T09:09:00;18.63;;;12.05;;
46334;SDS011;32051;48.882;9.210;2023-05-09T09:11:30;13.82;;;11.80;;
46334;SDS011;32051;48.882;9.210;2023-05-09T09:13:59;12.90;;;11.52;;
46334;SDS011;32051;48.882;9.210;2023-05-09T09:16:26;13.18;;;11.23;;
46334;SDS011;32051;48.882;9.210;2023-05-09T09:18:53;12.15;;;10.90;;
46334;SDS011;32051;48.882;9.210;2023-05-09T09:21:20;12.63;;;11.32;;
46334;SDS011;32051;48.882;9.210;2023-05-09T09:23:48;12.73;;;10.93;;
46334;SDS011;32051;48.882;9.210;2023-05-09T09:26:14;12.32;;;10.77;;
46334;SDS011;32051;48.882;9.210;2023-05-09T09:28:40;25.00;;;12.50;;
46334;SDS011;32051;48.882;9.210;2023-05-09T09:33:48;18.00;;;9.95;;
46334;SDS011;32051;48.882;9.210;2023-05-09T09:36:14;12.05;;;10.75;;
46334;SDS011;32051;48.882;9.210;2023-05-09T09:38:40;13.05;;;11.40;;
46334;SDS011;32051;48.882;9.210;2023-05-09T09:41:10;16.60;;;11.10;;
46334;SDS011;32051;48.882;9.210;2023-05-09T09:43:37;12.55;;;10.65;;
46334;SDS011;32051;48.882;9.210;2023-05-09T09:46:03;11.25;;;10.25;;
46334;SDS011;32051;48.882;9.210;2023-05-09T09:48:30;14.43;;;11.48;;
46334;SDS011;32051;48.882;9.210;2023-05-09T09:51:06;13.10;;;11.82;;
46334;SDS011;32051;48.882;9.210;2023-05-09T09:53:37;12.63;;;11.50;;
46334;SDS011;32051;48.882;9.210;2023-05-09T09:56:04;11.73;;;10.63;;
46334;SDS011;32051;48.882;9.210;2023-05-09T09:58:30;15.30;;;9.20;;
46334;SDS011;32051;48.882;9.210;2023-05-09T10:01:08;9.95;;;8.90;;
46334;SDS011;32051;48.882;9.210;2023-05-09T10:03:38;11.93;;;9.68;;
46334;SDS011;32051;48.882;9.210;2023-05-09T10:06:08;17.85;;;9.85;;
46334;SDS011;32051;48.882;9.210;2023-05-09T10:08:35;9.95;;;9.05;;
46334;SDS011;32051;48.882;9.210;2023-05-09T10:11:00;9.43;;;8.45;;
46334;SDS011;32051;48.882;9.210;2023-05-09T10:13:26;10.10;;;8.40;;
46334;SDS011;32051;48.882;9.210;2023-05-09T10:15:53;8.48;;;7.88;;
46334;SDS011;32051;48.882;9.210;2023-05-09T10:18:24;8.07;;;7.43;;
46334;SDS011;32051;48.882;9.210;2023-05-09T10:20:52;9.38;;;7.70;;
46334;SDS011;32051;48.882;9.210;2023-05-09T10:23:19;14.45;;;7.78;;
46334;SDS011;32051;48.882;9.210;2023-05-09T10:25:47;10.05;;;6.03;;
46334;SDS011;32051;48.882;9.210;2023-05-09T10:28:21;11.77;;;6.65;;
46334;SDS011;32051;48.882;9.210;2023-05-09T10:30:57;14.82;;;7.57;;
46334;SDS011;32051;48.882;9.210;2023-05-09T10:33:49;5.97;;;5.57;;
46334;SDS011;32051;48.882;9.210;2023-05-09T10:36:18;6.38;;;5.88;;
46334;SDS011;32051;48.882;9.210;2023-05-09T10:38:48;7.68;;;6.53;;
46334;SDS011;32051;48.882;9.210;2023-05-09T10:41:16;7.35;;;5.95;;
46334;SDS011;32051;48.882;9.210;2023-05-09T10:43:43;6.80;;;6.22;;
46334;SDS011;32051;48.882;9.210;2023-05-09T10:46:09;9.10;;;5.47;;
46334;SDS011;32051;48.882;9.210;2023-05-09T10:48:37;6.05;;;5.65;;
46334;SDS011;32051;48.882;9.210;2023-05-09T10:51:03;6.00;;;5.38;;
46334;SDS011;32051;48.882;9.210;2023-05-09T10:53:39;6.47;;;6.05;;
46334;SDS011;32051;48.882;9.210;2023-05-09T10:56:10;11.85;;;6.13;;
46334;SDS011;32051;48.882;9.210;2023-05-09T10:58:56;8.90;;;6.28;;
46334;SDS011;32051;48.882;9.210;2023-05-09T11:03:59;7.22;;;6.50;;
46334;SDS011;32051;48.882;9.210;2023-05-09T11:12:06;6.90;;;5.85;;
46334;SDS011;32051;48.882;9.210;2023-05-09T11:17:06;5.22;;;4.82;;
46334;SDS011;32051;48.882;9.210;2023-05-09T11:19:34;6.18;;;5.68;;
46334;SDS011;32051;48.882;9.210;2023-05-09T11:22:01;5.68;;;5.22;;
46334;SDS011;32051;48.882;9.210;2023-05-09T11:24:58;5.55;;;5.05;;
46334;SDS011;32051;48.882;9.210;2023-05-09T11:27:25;7.25;;;6.32;;
46334;SDS011;32051;48.882;9.210;2023-05-09T11:29:56;6.20;;;5.60;;
46334;SDS011;32051;48.882;9.210;2023-05-09T11:32:27;5.40;;;5.10;;
46334;SDS011;32051;48.882;9.210;2023-05-09T11:40:25;6.82;;;6.22;;
46334;SDS011;32051;48.882;9.210;2023-05-09T11:42:52;5.05;;;4.75;;
46334;SDS011;32051;48.882;9.210;2023-05-09T11:45:19;4.35;;;4.05;;
46334;SDS011;32051;48.882;9.210;2023-05-09T11:47:46;8.15;;;5.70;;
46334;SDS011;32051;48.882;9.210;2023-05-09T11:50:13;5.47;;;5.10;;
46334;SDS011;32051;48.882;9.210;2023-05-09T11:52:40;4.28;;;3.97;;
46334;SDS011;32051;48.882;9.210;2023-05-09T11:55:07;4.57;;;4.18;;
46334;SDS011;32051;48.882;9.210;2023-05-09T11:57:43;7.43;;;4.47;;
46334;SDS011;32051;48.882;9.210;2023-05-09T12:00:19;6.32;;;3.58;;
46334;SDS011;32051;48.882;9.210;2023-05-09T12:02:49;12.60;;;4.85;;
46334;SDS011;32051;48.882;9.210;2023-05-09T12:05:16;4.43;;;4.03;;
46334;SDS011;32051;48.882;9.210;2023-05-09T12:07:43;4.68;;;4.28;;
46334;SDS011;32051;48.882;9.210;2023-05-09T12:10:10;9.10;;;5.20;;
46334;SDS011;32051;48.882;9.210;2023-05-09T12:12:43;5.22;;;4.82;;
46334;SDS011;32051;48.882;9.210;2023-05-09T12:15:21;5.32;;;4.80;;
46334;SDS011;32051;48.882;9.210;2023-05-09T12:17:47;5.88;;;5.40;;
46334;SDS011;32051;48.882;9.210;2023-05-09T12:23:10;8.15;;;4.00;;
46334;SDS011;32051;48.882;9.210;2023-05-09T12:25:36;4.10;;;3.80;;
46334;SDS011;32051;48.882;9.210;2023-05-09T12:28:02;4.22;;;3.92;;
46334;SDS011;32051;48.882;9.210;2023-05-09T12:30:28;3.70;;;3.40;;
46334;SDS011;32051;48.882;9.210;2023-05-09T12:32:55;3.58;;;3.38;;
46334;SDS011;32051;48.882;9.210;2023-05-09T12:35:21;5.13;;;4.72;;
46334;SDS011;32051;48.882;9.210;2023-05-09T12:37:53;5.20;;;4.80;;
46334;SDS011;32051;48.882;9.210;2023-05-09T12:40:21;4.18;;;3.88;;
46334;SDS011;32051;48.882;9.210;2023-05-09T12:42:47;4.45;;;3.65;;
46334;SDS011;32051;48.882;9.210;2023-05-09T12:45:13;5.28;;;4.78;;
46334;SDS011;32051;48.882;9.210;2023-05-09T12:47:39;4.32;;;4.03;;
46334;SDS011;32051;48.882;9.210;2023-05-09T12:50:06;6.55;;;4.07;;
46334;SDS011;32051;48.882;9.210;2023-05-09T12:52:34;4.18;;;3.83;;
46334;SDS011;32051;48.882;9.210;2023-05-09T12:55:05;4.18;;;3.88;;
46334;SDS011;32051;48.882;9.210;2023-05-09T12:57:32;3.83;;;3.53;;
46334;SDS011;32051;48.882;9.210;2023-05-09T12:59:58;5.07;;;3.70;;
46334;SDS011;32051;48.882;9.210;2023-05-09T13:02:32;3.58;;;3.20;;
46334;SDS011;32051;48.882;9.210;2023-05-09T13:05:05;3.42;;;3.22;;
46334;SDS011;32051;48.882;9.210;2023-05-09T13:10:15;4.53;;;4.22;;
46334;SDS011;32051;48.882;9.210;2023-05-09T13:12:46;5.88;;;3.10;;
46334;SDS011;32051;48.882;9.210;2023-05-09T13:15:13;5.88;;;3.75;;
46334;SDS011;32051;48.882;9.210;2023-05-09T13:17:40;4.30;;;3.53;;
46334;SDS011;32051;48.882;9.210;2023-05-09T13:20:06;6.95;;;3.10;;
46334;SDS011;32051;48.882;9.210;2023-05-09T13:22:33;7.22;;;3.85;;
46334;SDS011;32051;48.882;9.210;2023-05-09T13:24:59;8.38;;;3.28;;
46334;SDS011;32051;48.882;9.210;2023-05-09T13:27:25;5.55;;;2.83;;
46334;SDS011;32051;48.882;9.210;2023-05-09T13:29:52;2.85;;;2.35;;
46334;SDS011;32051;48.882;9.210;2023-05-09T13:32:18;2.22;;;2.08;;
46334;SDS011;32051;48.882;9.210;2023-05-09T13:34:44;9.50;;;2.85;;
46334;SDS011;32051;48.882;9.210;2023-05-09T13:37:10;2.92;;;2.53;;
46334;SDS011;32051;48.882;9.210;2023-05-09T13:39:36;3.30;;;2.55;;
46334;SDS011;32051;48.882;9.210;2023-05-09T13:42:02;5.50;;;2.97;;
46334;SDS011;32051;48.882;9.210;2023-05-09T13:44:28;2.85;;;2.65;;
46334;SDS011;32051;48.882;9.210;2023-05-09T13:46:53;4.45;;;2.45;;
46334;SDS011;32051;48.882;9.210;2023-05-09T13:49:21;3.42;;;2.40;;
46334;SDS011;32051;48.882;9.210;2023-05-09T13:51:47;7.22;;;2.67;;
46334;SDS011;32051;48.882;9.210;2023-05-09T13:54:13;7.75;;;2.88;;
46334;SDS011;32051;48.882;9.210;2023-05-09T13:56:41;3.42;;;2.90;;
46334;SDS011;32051;48.882;9.210;2023-05-09T13:59:07;57.40;;;6.53;;
46334;SDS011;32051;48.882;9.210;2023-05-09T14:01:33;4.57;;;2.00;;
46334;SDS011;32051;48.882;9.210;2023-05-09T14:03:59;6.90;;;2.10;;
46334;SDS011;32051;48.882;9.210;2023-05-09T14:06:26;6.45;;;2.38;;
46334;SDS011;32051;48.882;9.210;2023-05-09T14:08:54;5.38;;;2.42;;
46334;SDS011;32051;48.882;9.210;2023-05-09T14:11:20;3.13;;;2.72;;
46334;SDS011;32051;48.882;9.210;2023-05-09T14:13:46;2.17;;;2.08;;
46334;SDS011;32051;48.882;9.210;2023-05-09T14:16:12;2.22;;;2.10;;
46334;SDS011;32051;48.882;9.210;2023-05-09T14:18:38;2.97;;;2.13;;
46334;SDS011;32051;48.882;9.210;2023-05-09T14:21:05;3.33;;;2.05;;
46334;SDS011;32051;48.882;9.210;2023-05-09T14:23:31;2.47;;;2.10;;
46334;SDS011;32051;48.882;9.210;2023-05-09T14:25:57;3.35;;;2.38;;
46334;SDS011;32051;48.882;9.210;2023-05-09T14:28:23;2.58;;;2.15;;
46334;SDS011;32051;48.882;9.210;2023-05-09T14:30:48;2.17;;;2.00;;
46334;SDS011;32051;48.882;9.210;2023-05-09T14:33:14;2.08;;;1.65;;
46334;SDS011;32051;48.882;9.210;2023-05-09T14:35:40;1.52;;;1.40;;
46334;SDS011;32051;48.882;9.210;2023-05-09T14:38:05;1.13;;;1.10;;
46334;SDS011;32051;48.882;9.210;2023-05-09T14:40:31;2.38;;;1.20;;
46334;SDS011;32051;48.882;9.210;2023-05-09T14:42:57;0.85;;;0.85;;
46334;SDS011;32051;48.882;9.210;2023-05-09T14:45:25;1.27;;;1.17;;
46334;SDS011;32051;48.882;9.210;2023-05-09T14:47:52;1.40;;;1.15;;
46334;SDS011;32051;48.882;9.210;2023-05-09T14:50:18;1.30;;;1.27;;
46334;SDS011;32051;48.882;9.210;2023-05-09T14:52:44;1.52;;;1.42;;
46334;SDS011;32051;48.882;9.210;2023-05-09T14:55:10;16.85;;;2.17;;
46334;SDS011;32051;48.882;9.210;2023-05-09T14:57:36;3.35;;;1.60;;
46334;SDS011;32051;48.882;9.210;2023-05-09T15:00:01;4.20;;;1.45;;
46334;SDS011;32051;48.882;9.210;2023-05-09T15:02:28;1.23;;;1.20;;
46334;SDS011;32051;48.882;9.210;2023-05-09T15:04:54;1.42;;;1.33;;
46334;SDS011;32051;48.882;9.210;2023-05-09T15:07:20;4.05;;;1.15;;